sensor_id;sensor_type;location;lat;lon;timestamp;pressure;altitude;pressure_sealevel;temperature;humidity
77147;BME280;66121;52.584;9.694;2023-05-08T00:01:45;102026.69;;;8.15;84.20
77147;BME280;66121;52.584;9.694;2023-05-08T00:04:11;102027.38;;;8.12;83.91
77147;BME280;66121;52.584;9.694;2023-05-08T00:06:36;102027.31;;;8.21;84.13
77147;BME280;66121;52.584;9.694;2023-05-08T00:09:01;102031.06;;;8.16;83.52
77147;BME280;66121;52.584;9.694;2023-05-08T00:11:26;102032.06;;;8.12;83.78
77147;BME280;66121;52.584;9.694;2023-05-08T00:13:52;102025.16;;;8.06;84.30
77147;BME280;66121;52.584;9.694;2023-05-08T00:16:17;102029.31;;;8.12;84.01
77147;BME280;66121;52.584;9.694;2023-05-08T00:18:42;102029.63;;;8.10;83.82
77147;BME280;66121;52.584;9.694;2023-05-08T00:21:08;102026.31;;;8.05;84.43
77147;BME280;66121;52.584;9.694;2023-05-08T00:23:33;102022.13;;;7.99;84.10
77147;BME280;66121;52.584;9.694;2023-05-08T00:25:58;102025.69;;;7.99;84.03
77147;BME280;66121;52.584;9.694;2023-05-08T00:28:24;102022.47;;;7.97;84.33
77147;BME280;66121;52.584;9.694;2023-05-08T00:30:49;102029.28;;;7.91;84.28
77147;BME280;66121;52.584;9.694;2023-05-08T00:33:15;102034.59;;;7.96;84.24
77147;BME280;66121;52.584;9.694;2023-05-08T00:35:40;102036.88;;;7.94;84.66
77147;BME280;66121;52.584;9.694;2023-05-08T00:38:07;102043.84;;;7.92;84.45
77147;BME280;66121;52.584;9.694;2023-05-08T00:40:32;102035.75;;;7.95;84.42
77147;BME280;66121;52.584;9.694;2023-05-08T00:42:58;102034.78;;;7.91;84.03
77147;BME280;66121;52.584;9.694;2023-05-08T00:45:23;102030.75;;;7.89;84.47
77147;BME280;66121;52.584;9.694;2023-05-08T00:47:49;102038.88;;;7.85;84.72
77147;BME280;66121;52.584;9.694;2023-05-08T00:50:15;102040.34;;;7.83;84.43
77147;BME280;66121;52.584;9.694;2023-05-08T00:52:41;102039.84;;;7.80;84.64
77147;BME280;66121;52.584;9.694;2023-05-08T00:55:07;102036.63;;;7.78;84.61
77147;BME280;66121;52.584;9.694;2023-05-08T00:57:32;102031.78;;;7.75;84.86
77147;BME280;66121;52.584;9.694;2023-05-08T01:00:03;102041.03;;;7.71;84.73
77147;BME280;66121;52.584;9.694;2023-05-08T01:02:30;102029.09;;;7.67;84.63
77147;BME280;66121;52.584;9.694;2023-05-08T01:04:56;102030.41;;;7.61;85.55
77147;BME280;66121;52.584;9.694;2023-05-08T01:07:21;102035.25;;;7.64;85.04
77147;BME280;66121;52.584;9.694;2023-05-08T01:09:47;102037.19;;;7.63;85.50
77147;BME280;66121;52.584;9.694;2023-05-08T01:12:29;102036.53;;;7.66;84.63
77147;BME280;66121;52.584;9.694;2023-05-08T01:18:10;102021.66;;;7.67;84.63
77147;BME280;66121;52.584;9.694;2023-05-08T01:20:48;102029.13;;;7.58;85.01
77147;BME280;66121;52.584;9.694;2023-05-08T01:34:04;102017.13;;;7.34;85.79
77147;BME280;66121;52.584;9.694;2023-05-08T01:36:36;102022.31;;;7.35;85.85
77147;BME280;66121;52.584;9.694;2023-05-08T01:39:13;102015.53;;;7.33;86.28
77147;BME280;66121;52.584;9.694;2023-05-08T01:41:57;102008.41;;;7.32;85.88
77147;BME280;66121;52.584;9.694;2023-05-08T01:44:28;102011.31;;;7.35;85.93
77147;BME280;66121;52.584;9.694;2023-05-08T01:46:57;102012.44;;;7.34;86.02
77147;BME280;66121;52.584;9.694;2023-05-08T01:49:33;102007.59;;;7.31;86.08
77147;BME280;66121;52.584;9.694;2023-05-08T01:52:05;102018.91;;;7.30;86.05
77147;BME280;66121;52.584;9.694;2023-05-08T01:54:38;102009.56;;;7.22;85.94
77147;BME280;66121;52.584;9.694;2023-05-08T01:57:08;102014.91;;;7.19;86.29
77147;BME280;66121;52.584;9.694;2023-05-08T01:59:35;102003.94;;;7.19;86.27
77147;BME280;66121;52.584;9.694;2023-05-08T02:02:02;102011.22;;;7.14;86.58
77147;BME280;66121;52.584;9.694;2023-05-08T02:04:29;102004.56;;;7.15;86.13
77147;BME280;66121;52.584;9.694;2023-05-08T02:06:56;102015.09;;;7.13;86.09
77147;BME280;66121;52.584;9.694;2023-05-08T02:09:22;102009.59;;;7.13;86.60
77147;BME280;66121;52.584;9.694;2023-05-08T02:11:50;102016.88;;;7.01;86.61
77147;BME280;66121;52.584;9.694;2023-05-08T02:14:18;102014.78;;;7.06;86.53
77147;BME280;66121;52.584;9.694;2023-05-08T02:16:47;102023.34;;;7.05;86.60
77147;BME280;66121;52.584;9.694;2023-05-08T02:19:15;102015.28;;;7.00;86.36
77147;BME280;66121;52.584;9.694;2023-05-08T02:21:43;102019.97;;;6.99;86.64
77147;BME280;66121;52.584;9.694;2023-05-08T02:24:09;102014.66;;;6.94;86.92
77147;BME280;66121;52.584;9.694;2023-05-08T02:26:35;102010.13;;;6.98;86.82
77147;BME280;66121;52.584;9.694;2023-05-08T02:29:02;102020.16;;;6.94;86.63
77147;BME280;66121;52.584;9.694;2023-05-08T02:31:28;102019.19;;;6.90;86.98
77147;BME280;66121;52.584;9.694;2023-05-08T02:33:54;102013.06;;;6.85;86.98
77147;BME280;66121;52.584;9.694;2023-05-08T02:36:20;102011.78;;;6.82;86.93
77147;BME280;66121;52.584;9.694;2023-05-08T02:38:49;102010.03;;;6.78;87.42
77147;BME280;66121;52.584;9.694;2023-05-08T02:41:18;102016.63;;;6.77;87.41
77147;BME280;66121;52.584;9.694;2023-05-08T02:43:44;102000.34;;;6.72;87.48
77147;BME280;66121;52.584;9.694;2023-05-08T02:46:14;102005.66;;;6.77;87.19
77147;BME280;66121;52.584;9.694;2023-05-08T02:48:50;102009.84;;;6.74;87.44
77147;BME280;66121;52.584;9.694;2023-05-08T02:51:24;102008.38;;;6.68;87.46
77147;BME280;66121;52.584;9.694;2023-05-08T02:53:57;102003.41;;;6.70;87.53
77147;BME280;66121;52.584;9.694;2023-05-08T02:56:39;102012.59;;;6.66;87.76
77147;BME280;66121;52.584;9.694;2023-05-08T02:59:15;102016.47;;;6.56;87.60
77147;BME280;66121;52.584;9.694;2023-05-08T03:01:49;102007.94;;;6.58;87.99
77147;BME280;66121;52.584;9.694;2023-05-08T03:04:24;102006.16;;;6.44;88.41
77147;BME280;66121;52.584;9.694;2023-05-08T03:06:51;101996.31;;;6.43;88.13
77147;BME280;66121;52.584;9.694;2023-05-08T03:09:20;102002.63;;;6.44;88.07
77147;BME280;66121;52.584;9.694;2023-05-08T03:11:49;102002.94;;;6.42;88.55
77147;BME280;66121;52.584;9.694;2023-05-08T03:14:19;102004.88;;;6.42;88.24
77147;BME280;66121;52.584;9.694;2023-05-08T03:16:49;102011.16;;;6.42;88.59
77147;BME280;66121;52.584;9.694;2023-05-08T03:19:27;102008.41;;;6.34;88.45
77147;BME280;66121;52.584;9.694;2023-05-08T03:21:54;102007.78;;;6.37;88.46
77147;BME280;66121;52.584;9.694;2023-05-08T03:24:21;102018.56;;;6.33;88.51
77147;BME280;66121;52.584;9.694;2023-05-08T03:26:48;102007.47;;;6.30;88.51
77147;BME280;66121;52.584;9.694;2023-05-08T03:29:13;102003.44;;;6.27;88.81
77147;BME280;66121;52.584;9.694;2023-05-08T03:31:41;102019.69;;;6.24;89.00
77147;BME280;66121;52.584;9.694;2023-05-08T03:34:07;101996.47;;;6.21;88.75
77147;BME280;66121;52.584;9.694;2023-05-08T03:36:34;102006.16;;;6.19;88.76
77147;BME280;66121;52.584;9.694;2023-05-08T03:38:59;102010.66;;;6.23;88.77
77147;BME280;66121;52.584;9.694;2023-05-08T03:41:25;101995.19;;;6.19;88.85
77147;BME280;66121;52.584;9.694;2023-05-08T03:43:51;101997.94;;;6.19;89.22
77147;BME280;66121;52.584;9.694;2023-05-08T03:46:18;102000.38;;;6.20;89.59
77147;BME280;66121;52.584;9.694;2023-05-08T03:48:44;102008.59;;;6.20;89.44
77147;BME280;66121;52.584;9.694;2023-05-08T03:51:10;102005.19;;;6.15;89.00
77147;BME280;66121;52.584;9.694;2023-05-08T03:53:36;101999.06;;;6.18;89.58
77147;BME280;66121;52.584;9.694;2023-05-08T03:56:01;101991.00;;;6.13;89.45
77147;BME280;66121;52.584;9.694;2023-05-08T03:58:40;101992.59;;;6.14;89.55
77147;BME280;66121;52.584;9.694;2023-05-08T04:01:37;101996.97;;;6.15;89.67
77147;BME280;66121;52.584;9.694;2023-05-08T04:04:09;101991.47;;;6.23;89.06
77147;BME280;66121;52.584;9.694;2023-05-08T04:07:14;102003.41;;;6.19;89.51
77147;BME280;66121;52.584;9.694;2023-05-08T04:12:21;102001.97;;;6.21;89.21
77147;BME280;66121;52.584;9.694;2023-05-08T04:14:49;102002.44;;;6.23;89.21
77147;BME280;66121;52.584;9.694;2023-05-08T04:17:33;102002.28;;;6.28;89.01
77147;BME280;66121;52.584;9.694;2023-05-08T04:20:03;101995.53;;;6.34;88.66
77147;BME280;66121;52.584;9.694;2023-05-08T04:22:31;101989.06;;;6.39;88.73
77147;BME280;66121;52.584;9.694;2023-05-08T04:25:00;101997.63;;;6.37;88.85
77147;BME280;66121;52.584;9.694;2023-05-08T04:27:27;102005.50;;;6.39;88.67
77147;BME280;66121;52.584;9.694;2023-05-08T04:29:53;102003.91;;;6.46;88.08
77147;BME280;66121;52.584;9.694;2023-05-08T04:32:19;102014.56;;;6.48;88.19
77147;BME280;66121;52.584;9.694;2023-05-08T04:34:45;102016.66;;;6.60;87.63
77147;BME280;66121;52.584;9.694;2023-05-08T04:37:24;102007.09;;;6.66;87.55
77147;BME280;66121;52.584;9.694;2023-05-08T04:39:53;102007.38;;;6.98;86.54
77147;BME280;66121;52.584;9.694;2023-05-08T04:42:19;102005.38;;;7.16;85.55
77147;BME280;66121;52.584;9.694;2023-05-08T04:44:45;102013.75;;;7.28;84.67
77147;BME280;66121;52.584;9.694;2023-05-08T04:47:12;102011.34;;;7.64;83.64
77147;BME280;66121;52.584;9.694;2023-05-08T04:49:37;102005.06;;;7.55;83.06
77147;BME280;66121;52.584;9.694;2023-05-08T04:52:03;102011.28;;;7.73;83.06
77147;BME280;66121;52.584;9.694;2023-05-08T04:54:28;102006.69;;;7.86;82.15
77147;BME280;66121;52.584;9.694;2023-05-08T04:56:53;102009.63;;;8.10;81.70
77147;BME280;66121;52.584;9.694;2023-05-08T04:59:19;102009.03;;;7.96;81.39
77147;BME280;66121;52.584;9.694;2023-05-08T05:01:45;102008.84;;;8.01;81.70
77147;BME280;66121;52.584;9.694;2023-05-08T05:04:11;102016.81;;;7.94;81.23
77147;BME280;66121;52.584;9.694;2023-05-08T05:06:36;102013.91;;;8.19;81.12
77147;BME280;66121;52.584;9.694;2023-05-08T05:09:02;102008.03;;;8.00;80.47
77147;BME280;66121;52.584;9.694;2023-05-08T05:11:27;102019.88;;;8.21;80.51
77147;BME280;66121;52.584;9.694;2023-05-08T05:13:53;102027.22;;;8.59;79.67
77147;BME280;66121;52.584;9.694;2023-05-08T05:16:18;102029.75;;;8.64;78.78
77147;BME280;66121;52.584;9.694;2023-05-08T05:18:43;102024.38;;;9.00;77.56
77147;BME280;66121;52.584;9.694;2023-05-08T05:21:08;102028.69;;;9.22;76.95
77147;BME280;66121;52.584;9.694;2023-05-08T05:23:35;102011.31;;;8.97;76.83
77147;BME280;66121;52.584;9.694;2023-05-08T05:26:01;102013.47;;;8.91;76.86
77147;BME280;66121;52.584;9.694;2023-05-08T05:28:26;102006.97;;;9.08;76.64
77147;BME280;66121;52.584;9.694;2023-05-08T05:30:51;102014.09;;;9.21;76.44
77147;BME280;66121;52.584;9.694;2023-05-08T05:33:17;102014.47;;;9.20;76.07
77147;BME280;66121;52.584;9.694;2023-05-08T05:35:42;102019.03;;;9.16;75.94
77147;BME280;66121;52.584;9.694;2023-05-08T05:38:08;102021.03;;;9.63;75.24
77147;BME280;66121;52.584;9.694;2023-05-08T05:40:33;102018.75;;;9.65;73.99
77147;BME280;66121;52.584;9.694;2023-05-08T05:42:58;102025.63;;;9.71;74.06
77147;BME280;66121;52.584;9.694;2023-05-08T05:45:23;102025.75;;;9.75;74.15
77147;BME280;66121;52.584;9.694;2023-05-08T05:47:49;102030.00;;;9.97;73.43
77147;BME280;66121;52.584;9.694;2023-05-08T05:50:15;102028.38;;;9.96;73.61
77147;BME280;66121;52.584;9.694;2023-05-08T05:52:42;102020.69;;;9.89;72.95
77147;BME280;66121;52.584;9.694;2023-05-08T05:55:07;102033.69;;;9.77;73.55
77147;BME280;66121;52.584;9.694;2023-05-08T05:57:33;102041.22;;;10.28;74.08
77147;BME280;66121;52.584;9.694;2023-05-08T05:59:58;102041.44;;;10.35;72.15
77147;BME280;66121;52.584;9.694;2023-05-08T06:02:24;102033.53;;;10.33;71.50
77147;BME280;66121;52.584;9.694;2023-05-08T06:04:50;102034.63;;;10.45;71.66
77147;BME280;66121;52.584;9.694;2023-05-08T06:07:15;102040.09;;;10.29;71.65
77147;BME280;66121;52.584;9.694;2023-05-08T06:09:42;102034.81;;;10.24;71.55
77147;BME280;66121;52.584;9.694;2023-05-08T06:12:07;102045.69;;;10.72;71.49
77147;BME280;66121;52.584;9.694;2023-05-08T06:14:33;102045.59;;;10.96;71.07
77147;BME280;66121;52.584;9.694;2023-05-08T06:16:58;102035.81;;;11.15;72.05
77147;BME280;66121;52.584;9.694;2023-05-08T06:19:24;102039.91;;;11.05;70.44
77147;BME280;66121;52.584;9.694;2023-05-08T06:21:50;102028.09;;;10.77;69.30
77147;BME280;66121;52.584;9.694;2023-05-08T06:24:15;102050.22;;;10.92;69.76
77147;BME280;66121;52.584;9.694;2023-05-08T06:26:41;102048.97;;;10.90;69.82
77147;BME280;66121;52.584;9.694;2023-05-08T06:29:06;102042.16;;;11.15;70.57
77147;BME280;66121;52.584;9.694;2023-05-08T06:31:31;102045.84;;;11.50;70.17
77147;BME280;66121;52.584;9.694;2023-05-08T06:33:56;102052.00;;;11.44;68.51
77147;BME280;66121;52.584;9.694;2023-05-08T06:36:22;102041.38;;;11.30;68.23
77147;BME280;66121;52.584;9.694;2023-05-08T06:38:47;102042.22;;;11.46;68.50
77147;BME280;66121;52.584;9.694;2023-05-08T06:41:12;102042.09;;;11.90;67.77
77147;BME280;66121;52.584;9.694;2023-05-08T06:43:38;102039.44;;;11.78;67.88
77147;BME280;66121;52.584;9.694;2023-05-08T06:46:03;102042.31;;;11.81;68.11
77147;BME280;66121;52.584;9.694;2023-05-08T06:48:28;102031.63;;;12.14;67.36
77147;BME280;66121;52.584;9.694;2023-05-08T06:50:54;102038.16;;;12.60;68.33
77147;BME280;66121;52.584;9.694;2023-05-08T06:53:19;102035.59;;;13.09;66.53
77147;BME280;66121;52.584;9.694;2023-05-08T06:55:45;102043.47;;;12.50;64.84
77147;BME280;66121;52.584;9.694;2023-05-08T06:58:10;102040.72;;;13.07;65.22
77147;BME280;66121;52.584;9.694;2023-05-08T07:00:36;102048.78;;;12.97;65.44
77147;BME280;66121;52.584;9.694;2023-05-08T07:03:01;102042.88;;;13.17;62.94
77147;BME280;66121;52.584;9.694;2023-05-08T07:05:27;102037.88;;;13.04;64.22
77147;BME280;66121;52.584;9.694;2023-05-08T07:07:52;102048.31;;;12.91;63.43
77147;BME280;66121;52.584;9.694;2023-05-08T07:10:20;102041.66;;;12.96;63.89
77147;BME280;66121;52.584;9.694;2023-05-08T07:12:48;102046.94;;;13.69;64.04
77147;BME280;66121;52.584;9.694;2023-05-08T07:15:13;102048.16;;;14.20;64.61
77147;BME280;66121;52.584;9.694;2023-05-08T07:17:38;102056.81;;;14.15;63.33
77147;BME280;66121;52.584;9.694;2023-05-08T07:20:04;102042.06;;;13.85;60.54
77147;BME280;66121;52.584;9.694;2023-05-08T07:22:30;102050.78;;;14.09;62.25
77147;BME280;66121;52.584;9.694;2023-05-08T07:24:55;102044.81;;;14.63;61.58
77147;BME280;66121;52.584;9.694;2023-05-08T07:27:20;102044.69;;;14.86;59.35
77147;BME280;66121;52.584;9.694;2023-05-08T07:29:45;102039.94;;;15.23;60.74
77147;BME280;66121;52.584;9.694;2023-05-08T07:32:11;102044.75;;;14.90;58.39
77147;BME280;66121;52.584;9.694;2023-05-08T07:34:36;102042.34;;;15.25;61.25
77147;BME280;66121;52.584;9.694;2023-05-08T07:37:02;102038.88;;;15.35;57.67
77147;BME280;66121;52.584;9.694;2023-05-08T07:39:28;102047.53;;;15.67;58.63
77147;BME280;66121;52.584;9.694;2023-05-08T07:41:53;102044.00;;;14.96;57.54
77147;BME280;66121;52.584;9.694;2023-05-08T07:44:18;102034.16;;;15.02;58.98
77147;BME280;66121;52.584;9.694;2023-05-08T07:46:43;102025.00;;;14.65;57.76
77147;BME280;66121;52.584;9.694;2023-05-08T07:49:09;102034.13;;;14.99;58.82
77147;BME280;66121;52.584;9.694;2023-05-08T07:51:35;102025.81;;;15.02;58.08
77147;BME280;66121;52.584;9.694;2023-05-08T07:54:00;102025.97;;;16.07;58.34
77147;BME280;66121;52.584;9.694;2023-05-08T07:56:25;102027.44;;;15.87;55.10
77147;BME280;66121;52.584;9.694;2023-05-08T07:58:51;102028.03;;;16.21;56.26
77147;BME280;66121;52.584;9.694;2023-05-08T08:01:16;102025.91;;;16.00;54.91
77147;BME280;66121;52.584;9.694;2023-05-08T08:03:43;102033.03;;;15.94;54.62
77147;BME280;66121;52.584;9.694;2023-05-08T08:06:09;102044.56;;;15.93;54.99
77147;BME280;66121;52.584;9.694;2023-05-08T08:08:34;102038.09;;;16.40;58.80
77147;BME280;66121;52.584;9.694;2023-05-08T08:10:59;102042.34;;;16.99;54.72
77147;BME280;66121;52.584;9.694;2023-05-08T08:13:24;102038.47;;;17.49;55.13
77147;BME280;66121;52.584;9.694;2023-05-08T08:15:50;102032.47;;;17.44;53.36
77147;BME280;66121;52.584;9.694;2023-05-08T08:18:16;102041.47;;;16.73;53.21
77147;BME280;66121;52.584;9.694;2023-05-08T08:20:41;102042.81;;;17.43;54.09
77147;BME280;66121;52.584;9.694;2023-05-08T08:23:06;102041.63;;;17.48;52.08
77147;BME280;66121;52.584;9.694;2023-05-08T08:25:32;102040.06;;;17.39;52.35
77147;BME280;66121;52.584;9.694;2023-05-08T08:27:57;102033.28;;;17.44;52.59
77147;BME280;66121;52.584;9.694;2023-05-08T08:30:22;102038.47;;;17.70;51.68
77147;BME280;66121;52.584;9.694;2023-05-08T08:32:48;102037.69;;;17.80;52.71
77147;BME280;66121;52.584;9.694;2023-05-08T08:35:13;102039.69;;;17.59;51.58
77147;BME280;66121;52.584;9.694;2023-05-08T08:37:39;102044.06;;;17.53;50.93
77147;BME280;66121;52.584;9.694;2023-05-08T08:40:05;102034.47;;;17.43;53.44
77147;BME280;66121;52.584;9.694;2023-05-08T08:42:30;102045.53;;;18.45;53.93
77147;BME280;66121;52.584;9.694;2023-05-08T08:44:55;102032.91;;;17.63;51.65
77147;BME280;66121;52.584;9.694;2023-05-08T08:47:27;102039.66;;;18.22;51.03
77147;BME280;66121;52.584;9.694;2023-05-08T08:50:00;102034.09;;;17.59;51.57
77147;BME280;66121;52.584;9.694;2023-05-08T08:54:59;102027.97;;;18.45;50.87
77147;BME280;66121;52.584;9.694;2023-05-08T08:57:27;102015.88;;;18.87;49.56
77147;BME280;66121;52.584;9.694;2023-05-08T08:59:57;102020.13;;;19.09;48.63
77147;BME280;66121;52.584;9.694;2023-05-08T09:02:24;102014.53;;;17.90;49.76
77147;BME280;66121;52.584;9.694;2023-05-08T09:04:50;102015.63;;;18.49;50.59
77147;BME280;66121;52.584;9.694;2023-05-08T09:07:16;102013.19;;;19.31;49.61
77147;BME280;66121;52.584;9.694;2023-05-08T09:09:42;102016.97;;;19.00;49.09
77147;BME280;66121;52.584;9.694;2023-05-08T09:12:11;102013.66;;;18.36;50.78
77147;BME280;66121;52.584;9.694;2023-05-08T09:14:37;102013.75;;;19.05;48.89
77147;BME280;66121;52.584;9.694;2023-05-08T09:17:02;102008.75;;;19.41;48.50
77147;BME280;66121;52.584;9.694;2023-05-08T09:19:28;102006.53;;;19.11;49.11
77147;BME280;66121;52.584;9.694;2023-05-08T09:21:54;102004.91;;;19.17;51.08
77147;BME280;66121;52.584;9.694;2023-05-08T09:24:22;102002.09;;;18.27;48.69
77147;BME280;66121;52.584;9.694;2023-05-08T09:26:48;102008.06;;;18.36;49.22
77147;BME280;66121;52.584;9.694;2023-05-08T09:29:19;102008.97;;;17.87;49.58
77147;BME280;66121;52.584;9.694;2023-05-08T09:31:47;101989.81;;;17.99;50.52
77147;BME280;66121;52.584;9.694;2023-05-08T09:34:26;102003.13;;;18.79;48.85
77147;BME280;66121;52.584;9.694;2023-05-08T09:37:09;102004.66;;;19.97;50.48
77147;BME280;66121;52.584;9.694;2023-05-08T09:39:35;102000.75;;;20.58;50.22
77147;BME280;66121;52.584;9.694;2023-05-08T09:42:04;101993.91;;;20.89;46.21
77147;BME280;66121;52.584;9.694;2023-05-08T09:44:51;102000.91;;;20.78;45.20
77147;BME280;66121;52.584;9.694;2023-05-08T09:47:22;102002.22;;;20.70;47.29
77147;BME280;66121;52.584;9.694;2023-05-08T09:49:57;101997.81;;;19.98;48.58
77147;BME280;66121;52.584;9.694;2023-05-08T09:52:23;102003.41;;;20.38;47.49
77147;BME280;66121;52.584;9.694;2023-05-08T09:54:56;102005.22;;;20.52;47.08
77147;BME280;66121;52.584;9.694;2023-05-08T09:57:22;102002.22;;;20.70;45.31
77147;BME280;66121;52.584;9.694;2023-05-08T09:59:48;102011.19;;;20.88;45.76
77147;BME280;66121;52.584;9.694;2023-05-08T10:02:13;102010.34;;;21.21;45.02
77147;BME280;66121;52.584;9.694;2023-05-08T10:04:40;102003.41;;;21.52;43.48
77147;BME280;66121;52.584;9.694;2023-05-08T10:07:05;102004.38;;;21.42;44.98
77147;BME280;66121;52.584;9.694;2023-05-08T10:09:31;102001.25;;;21.37;48.03
77147;BME280;66121;52.584;9.694;2023-05-08T10:11:56;101995.75;;;21.30;42.81
77147;BME280;66121;52.584;9.694;2023-05-08T10:14:22;101992.72;;;21.44;43.52
77147;BME280;66121;52.584;9.694;2023-05-08T10:16:50;101994.25;;;21.71;43.68
77147;BME280;66121;52.584;9.694;2023-05-08T10:19:21;101992.13;;;21.56;45.30
77147;BME280;66121;52.584;9.694;2023-05-08T10:21:51;101993.34;;;22.01;44.60
77147;BME280;66121;52.584;9.694;2023-05-08T10:24:31;101987.09;;;22.13;42.44
77147;BME280;66121;52.584;9.694;2023-05-08T10:27:05;101980.63;;;21.70;41.26
77147;BME280;66121;52.584;9.694;2023-05-08T10:29:53;101986.16;;;21.27;41.93
77147;BME280;66121;52.584;9.694;2023-05-08T10:32:22;101989.94;;;21.17;42.13
77147;BME280;66121;52.584;9.694;2023-05-08T10:34:51;101983.47;;;21.93;42.51
77147;BME280;66121;52.584;9.694;2023-05-08T10:37:17;101973.41;;;21.69;42.05
77147;BME280;66121;52.584;9.694;2023-05-08T10:39:44;101981.88;;;22.31;42.21
77147;BME280;66121;52.584;9.694;2023-05-08T10:42:13;101972.38;;;22.06;40.64
77147;BME280;66121;52.584;9.694;2023-05-08T10:44:39;101971.75;;;22.18;41.70
77147;BME280;66121;52.584;9.694;2023-05-08T10:47:29;101969.63;;;22.02;42.71
77147;BME280;66121;52.584;9.694;2023-05-08T10:52:46;101967.47;;;22.29;42.54
77147;BME280;66121;52.584;9.694;2023-05-08T10:55:30;101972.56;;;21.95;40.06
77147;BME280;66121;52.584;9.694;2023-05-08T10:58:13;101966.59;;;21.47;40.49
77147;BME280;66121;52.584;9.694;2023-05-08T11:03:16;101973.53;;;22.48;39.79
77147;BME280;66121;52.584;9.694;2023-05-08T11:05:49;101971.22;;;22.62;38.80
77147;BME280;66121;52.584;9.694;2023-05-08T11:08:17;101976.22;;;22.35;42.30
77147;BME280;66121;52.584;9.694;2023-05-08T11:10:51;101978.31;;;20.88;38.65
77147;BME280;66121;52.584;9.694;2023-05-08T11:13:34;101965.44;;;21.21;40.00
77147;BME280;66121;52.584;9.694;2023-05-08T11:16:01;101970.47;;;21.03;40.05
77147;BME280;66121;52.584;9.694;2023-05-08T11:18:28;101965.66;;;21.76;42.09
77147;BME280;66121;52.584;9.694;2023-05-08T11:21:04;101952.94;;;21.49;39.53
77147;BME280;66121;52.584;9.694;2023-05-08T11:23:33;101961.06;;;22.09;37.91
77147;BME280;66121;52.584;9.694;2023-05-08T11:26:38;101955.78;;;23.22;38.14
77147;BME280;66121;52.584;9.694;2023-05-08T11:29:15;101959.78;;;22.89;36.63
77147;BME280;66121;52.584;9.694;2023-05-08T11:31:50;101955.56;;;22.02;39.21
77147;BME280;66121;52.584;9.694;2023-05-08T11:37:24;101962.19;;;21.92;40.04
77147;BME280;66121;52.584;9.694;2023-05-08T11:39:50;101949.72;;;21.93;37.56
77147;BME280;66121;52.584;9.694;2023-05-08T11:47:35;101953.25;;;22.36;39.07
77147;BME280;66121;52.584;9.694;2023-05-08T11:50:01;101949.72;;;21.93;38.63
77147;BME280;66121;52.584;9.694;2023-05-08T11:52:27;101961.31;;;22.54;38.75
77147;BME280;66121;52.584;9.694;2023-05-08T11:54:55;101952.69;;;22.45;37.90
77147;BME280;66121;52.584;9.694;2023-05-08T11:57:20;101961.59;;;22.63;38.19
77147;BME280;66121;52.584;9.694;2023-05-08T11:59:49;101966.03;;;22.21;39.77
77147;BME280;66121;52.584;9.694;2023-05-08T12:02:15;101963.34;;;21.71;37.63
77147;BME280;66121;52.584;9.694;2023-05-08T12:04:42;101956.72;;;21.81;39.41
77147;BME280;66121;52.584;9.694;2023-05-08T12:07:08;101961.69;;;21.74;41.09
77147;BME280;66121;52.584;9.694;2023-05-08T12:09:33;101963.34;;;21.95;38.66
77147;BME280;66121;52.584;9.694;2023-05-08T12:12:01;101968.09;;;22.57;39.10
77147;BME280;66121;52.584;9.694;2023-05-08T12:14:26;101966.75;;;22.25;37.81
77147;BME280;66121;52.584;9.694;2023-05-08T12:16:51;101963.78;;;22.52;40.92
77147;BME280;66121;52.584;9.694;2023-05-08T12:19:16;101960.41;;;22.96;39.19
77147;BME280;66121;52.584;9.694;2023-05-08T12:21:48;101964.31;;;23.35;39.54
77147;BME280;66121;52.584;9.694;2023-05-08T12:24:15;101956.81;;;22.40;37.55
77147;BME280;66121;52.584;9.694;2023-05-08T12:26:42;101965.34;;;21.94;38.70
77147;BME280;66121;52.584;9.694;2023-05-08T12:29:08;101971.28;;;21.76;38.08
77147;BME280;66121;52.584;9.694;2023-05-08T12:31:34;101953.81;;;21.19;38.64
77147;BME280;66121;52.584;9.694;2023-05-08T12:34:02;101960.75;;;21.61;40.21
77147;BME280;66121;52.584;9.694;2023-05-08T12:36:27;101964.41;;;21.08;38.89
77147;BME280;66121;52.584;9.694;2023-05-08T12:39:07;101971.53;;;21.62;40.40
77147;BME280;66121;52.584;9.694;2023-05-08T12:41:33;101963.22;;;22.21;41.63
77147;BME280;66121;52.584;9.694;2023-05-08T12:43:58;101960.03;;;22.00;38.92
77147;BME280;66121;52.584;9.694;2023-05-08T12:46:23;101964.16;;;21.95;39.69
77147;BME280;66121;52.584;9.694;2023-05-08T12:48:49;101966.91;;;21.75;40.11
77147;BME280;66121;52.584;9.694;2023-05-08T12:51:14;101955.75;;;21.49;40.00
77147;BME280;66121;52.584;9.694;2023-05-08T12:53:39;101964.31;;;22.27;38.24
77147;BME280;66121;52.584;9.694;2023-05-08T12:58:45;101957.00;;;23.05;42.24
77147;BME280;66121;52.584;9.694;2023-05-08T13:01:11;101965.63;;;23.14;38.77
77147;BME280;66121;52.584;9.694;2023-05-08T13:03:38;101963.25;;;23.77;39.07
77147;BME280;66121;52.584;9.694;2023-05-08T13:06:04;101953.75;;;23.23;39.91
77147;BME280;66121;52.584;9.694;2023-05-08T13:08:34;101954.28;;;23.18;38.77
77147;BME280;66121;52.584;9.694;2023-05-08T13:11:01;101949.59;;;22.95;37.98
77147;BME280;66121;52.584;9.694;2023-05-08T13:13:29;101949.34;;;23.05;38.57
77147;BME280;66121;52.584;9.694;2023-05-08T13:15:55;101951.06;;;22.83;38.37
77147;BME280;66121;52.584;9.694;2023-05-08T13:18:24;101951.66;;;22.75;39.66
77147;BME280;66121;52.584;9.694;2023-05-08T13:20:51;101939.91;;;23.12;38.27
77147;BME280;66121;52.584;9.694;2023-05-08T13:23:16;101948.06;;;23.42;39.71
77147;BME280;66121;52.584;9.694;2023-05-08T13:25:41;101927.41;;;22.97;37.48
77147;BME280;66121;52.584;9.694;2023-05-08T13:28:07;101943.09;;;22.62;38.98
77147;BME280;66121;52.584;9.694;2023-05-08T13:30:34;101933.28;;;22.86;38.02
77147;BME280;66121;52.584;9.694;2023-05-08T13:33:00;101931.78;;;22.66;37.62
77147;BME280;66121;52.584;9.694;2023-05-08T13:35:25;101927.91;;;22.20;40.18